sensor_id;sensor_type;location;lat;lon;timestamp;pressure;altitude;pressure_sealevel;temperature;humidity
37206;BME280;23099;42.636;23.198;2023-04-21T00:02:19;91656.97;;;6.14;100.00
37206;BME280;23099;42.636;23.198;2023-04-21T00:04:46;91652.00;;;6.13;100.00
37206;BME280;23099;42.636;23.198;2023-04-21T00:07:13;91638.50;;;6.18;100.00
37206;BME280;23099;42.636;23.198;2023-04-21T00:09:42;91648.94;;;6.26;100.00
37206;BME280;23099;42.636;23.198;2023-04-21T00:12:08;91645.75;;;6.21;100.00
37206;BME280;23099;42.636;23.198;2023-04-21T00:14:35;91640.97;;;6.26;100.00
37206;BME280;23099;42.636;23.198;2023-04-21T00:17:02;91643.28;;;6.28;99.89
37206;BME280;23099;42.636;23.198;2023-04-21T00:19:29;91645.00;;;6.20;99.05
37206;BME280;23099;42.636;23.198;2023-04-21T00:21:55;91635.84;;;6.18;98.77
37206;BME280;23099;42.636;23.198;2023-04-21T00:24:25;91637.94;;;5.96;99.60
37206;BME280;23099;42.636;23.198;2023-04-21T00:26:53;91640.00;;;6.03;100.00
37206;BME280;23099;42.636;23.198;2023-04-21T00:29:20;91645.56;;;5.98;100.00
37206;BME280;23099;42.636;23.198;2023-04-21T00:31:46;91647.78;;;5.96;100.00
37206;BME280;23099;42.636;23.198;2023-04-21T00:34:13;91642.91;;;5.98;100.00
37206;BME280;23099;42.636;23.198;2023-04-21T00:36:39;91642.75;;;5.91;100.00
37206;BME280;23099;42.636;23.198;2023-04-21T00:39:06;91646.22;;;5.95;100.00
37206;BME280;23099;42.636;23.198;2023-04-21T00:41:35;91637.06;;;5.92;100.00
37206;BME280;23099;42.636;23.198;2023-04-21T00:44:06;91638.28;;;5.95;100.00
37206;BME280;23099;42.636;23.198;2023-04-21T00:46:33;91635.41;;;5.88;99.82
37206;BME280;23099;42.636;23.198;2023-04-21T00:49:03;91637.19;;;5.84;99.69
37206;BME280;23099;42.636;23.198;2023-04-21T00:51:32;91636.50;;;5.71;100.00
37206;BME280;23099;42.636;23.198;2023-04-21T00:54:00;91638.13;;;5.76;100.00
37206;BME280;23099;42.636;23.198;2023-04-21T00:56:30;91617.69;;;5.48;99.72
37206;BME280;23099;42.636;23.198;2023-04-21T00:58:58;91634.25;;;5.57;99.81
37206;BME280;23099;42.636;23.198;2023-04-21T01:01:27;91633.63;;;5.64;100.00
37206;BME280;23099;42.636;23.198;2023-04-21T01:03:56;91637.56;;;5.54;100.00
37206;BME280;23099;42.636;23.198;2023-04-21T01:06:23;91634.72;;;5.47;100.00
37206;BME280;23099;42.636;23.198;2023-04-21T01:08:51;91638.56;;;5.50;100.00
37206;BME280;23099;42.636;23.198;2023-04-21T01:11:19;91627.53;;;5.48;100.00
37206;BME280;23099;42.636;23.198;2023-04-21T01:13:46;91640.16;;;5.39;100.00
37206;BME280;23099;42.636;23.198;2023-04-21T01:16:15;91640.03;;;5.35;99.63
37206;BME280;23099;42.636;23.198;2023-04-21T01:18:43;91633.75;;;5.40;100.00
37206;BME280;23099;42.636;23.198;2023-04-21T01:21:10;91627.88;;;5.46;100.00
37206;BME280;23099;42.636;23.198;2023-04-21T01:23:38;91623.75;;;5.33;99.63
37206;BME280;23099;42.636;23.198;2023-04-21T01:26:05;91625.78;;;5.40;99.81
37206;BME280;23099;42.636;23.198;2023-04-21T01:28:32;91624.16;;;5.35;99.96
37206;BME280;23099;42.636;23.198;2023-04-21T01:30:59;91622.84;;;5.29;99.45
37206;BME280;23099;42.636;23.198;2023-04-21T01:33:25;91614.25;;;5.20;99.48
37206;BME280;23099;42.636;23.198;2023-04-21T01:35:52;91620.00;;;5.22;99.75
37206;BME280;23099;42.636;23.198;2023-04-21T01:38:20;91619.97;;;4.82;100.00
37206;BME280;23099;42.636;23.198;2023-04-21T01:40:50;91622.16;;;4.92;100.00
37206;BME280;23099;42.636;23.198;2023-04-21T01:43:20;91623.16;;;5.00;100.00
37206;BME280;23099;42.636;23.198;2023-04-21T01:45:47;91619.50;;;4.92;100.00
37206;BME280;23099;42.636;23.198;2023-04-21T01:48:13;91619.84;;;5.03;100.00
37206;BME280;23099;42.636;23.198;2023-04-21T01:50:40;91614.00;;;4.97;100.00
37206;BME280;23099;42.636;23.198;2023-04-21T01:53:07;91611.22;;;5.06;100.00
37206;BME280;23099;42.636;23.198;2023-04-21T01:55:34;91618.94;;;5.11;100.00
37206;BME280;23099;42.636;23.198;2023-04-21T01:58:02;91620.47;;;5.12;100.00
37206;BME280;23099;42.636;23.198;2023-04-21T02:00:29;91615.41;;;5.07;100.00
37206;BME280;23099;42.636;23.198;2023-04-21T02:02:55;91620.06;;;4.97;99.58
37206;BME280;23099;42.636;23.198;2023-04-21T02:05:22;91619.63;;;4.95;100.00
37206;BME280;23099;42.636;23.198;2023-04-21T02:07:49;91618.75;;;4.91;100.00
37206;BME280;23099;42.636;23.198;2023-04-21T02:10:16;91622.53;;;4.90;100.00
37206;BME280;23099;42.636;23.198;2023-04-21T02:12:42;91624.59;;;4.97;100.00
37206;BME280;23099;42.636;23.198;2023-04-21T02:15:11;91618.97;;;4.98;100.00
37206;BME280;23099;42.636;23.198;2023-04-21T02:17:37;91616.50;;;5.06;100.00
37206;BME280;23099;42.636;23.198;2023-04-21T02:20:05;91617.63;;;5.05;100.00
37206;BME280;23099;42.636;23.198;2023-04-21T02:22:32;91616.34;;;4.86;100.00
37206;BME280;23099;42.636;23.198;2023-04-21T02:24:59;91610.13;;;4.94;100.00
37206;BME280;23099;42.636;23.198;2023-04-21T02:27:26;91606.06;;;4.97;100.00
37206;BME280;23099;42.636;23.198;2023-04-21T02:29:52;91610.59;;;4.84;100.00
37206;BME280;23099;42.636;23.198;2023-04-21T02:32:20;91615.25;;;4.87;100.00
37206;BME280;23099;42.636;23.198;2023-04-21T02:34:47;91611.16;;;4.90;100.00
37206;BME280;23099;42.636;23.198;2023-04-21T02:37:15;91611.03;;;4.98;100.00
37206;BME280;23099;42.636;23.198;2023-04-21T02:39:41;91608.16;;;5.04;100.00
37206;BME280;23099;42.636;23.198;2023-04-21T02:42:09;91610.31;;;5.14;100.00
37206;BME280;23099;42.636;23.198;2023-04-21T02:44:36;91612.69;;;5.03;100.00
37206;BME280;23099;42.636;23.198;2023-04-21T02:47:03;91610.44;;;5.17;100.00
37206;BME280;23099;42.636;23.198;2023-04-21T02:49:31;91609.59;;;5.29;100.00
37206;BME280;23099;42.636;23.198;2023-04-21T02:51:57;91620.25;;;5.17;100.00
37206;BME280;23099;42.636;23.198;2023-04-21T02:54:24;91613.53;;;5.19;100.00
37206;BME280;23099;42.636;23.198;2023-04-21T02:56:51;91618.66;;;5.28;100.00
37206;BME280;23099;42.636;23.198;2023-04-21T02:59:17;91614.47;;;5.27;100.00
37206;BME280;23099;42.636;23.198;2023-04-21T03:01:44;91610.72;;;5.28;100.00
37206;BME280;23099;42.636;23.198;2023-04-21T03:04:13;91613.53;;;5.35;100.00
37206;BME280;23099;42.636;23.198;2023-04-21T03:06:41;91621.50;;;5.35;100.00
37206;BME280;23099;42.636;23.198;2023-04-21T03:09:08;91616.06;;;5.44;100.00
37206;BME280;23099;42.636;23.198;2023-04-21T03:11:35;91619.94;;;5.46;100.00
37206;BME280;23099;42.636;23.198;2023-04-21T03:14:01;91621.13;;;5.49;100.00
37206;BME280;23099;42.636;23.198;2023-04-21T03:16:28;91620.78;;;5.50;100.00
37206;BME280;23099;42.636;23.198;2023-04-21T03:18:55;91625.00;;;5.67;100.00
37206;BME280;23099;42.636;23.198;2023-04-21T03:21:21;91620.94;;;5.69;100.00
37206;BME280;23099;42.636;23.198;2023-04-21T03:23:51;91616.97;;;5.63;100.00
37206;BME280;23099;42.636;23.198;2023-04-21T03:26:18;91624.19;;;5.79;100.00
37206;BME280;23099;42.636;23.198;2023-04-21T03:28:44;91625.16;;;5.86;100.00
37206;BME280;23099;42.636;23.198;2023-04-21T03:31:11;91628.38;;;5.80;100.00
37206;BME280;23099;42.636;23.198;2023-04-21T03:33:38;91624.72;;;5.84;100.00
37206;BME280;23099;42.636;23.198;2023-04-21T03:36:05;91629.88;;;5.93;100.00
37206;BME280;23099;42.636;23.198;2023-04-21T03:38:32;91632.28;;;5.98;100.00
37206;BME280;23099;42.636;23.198;2023-04-21T03:41:02;91633.00;;;5.83;100.00
37206;BME280;23099;42.636;23.198;2023-04-21T03:43:29;91623.56;;;5.97;100.00
37206;BME280;23099;42.636;23.198;2023-04-21T03:45:55;91628.78;;;6.10;100.00
37206;BME280;23099;42.636;23.198;2023-04-21T03:48:22;91620.69;;;6.18;100.00
37206;BME280;23099;42.636;23.198;2023-04-21T03:50:49;91625.22;;;6.18;100.00
37206;BME280;23099;42.636;23.198;2023-04-21T03:53:15;91632.06;;;6.19;100.00
37206;BME280;23099;42.636;23.198;2023-04-21T03:55:42;91630.88;;;6.16;100.00
37206;BME280;23099;42.636;23.198;2023-04-21T03:58:14;91634.13;;;6.25;100.00
37206;BME280;23099;42.636;23.198;2023-04-21T04:00:41;91630.34;;;6.26;100.00
37206;BME280;23099;42.636;23.198;2023-04-21T04:03:07;91632.41;;;6.33;100.00
37206;BME280;23099;42.636;23.198;2023-04-21T04:05:34;91639.09;;;6.43;100.00
37206;BME280;23099;42.636;23.198;2023-04-21T04:08:01;91630.44;;;6.46;100.00
37206;BME280;23099;42.636;23.198;2023-04-21T04:10:27;91636.25;;;6.51;100.00
37206;BME280;23099;42.636;23.198;2023-04-21T04:12:54;91640.88;;;6.54;100.00
37206;BME280;23099;42.636;23.198;2023-04-21T04:15:22;91638.31;;;6.58;100.00
37206;BME280;23099;42.636;23.198;2023-04-21T04:17:49;91638.47;;;6.65;100.00
37206;BME280;23099;42.636;23.198;2023-04-21T04:20:16;91649.00;;;6.77;100.00
37206;BME280;23099;42.636;23.198;2023-04-21T04:22:42;91654.56;;;6.88;100.00
37206;BME280;23099;42.636;23.198;2023-04-21T04:25:09;91652.38;;;6.93;100.00
37206;BME280;23099;42.636;23.198;2023-04-21T04:27:37;91654.66;;;6.91;100.00
37206;BME280;23099;42.636;23.198;2023-04-21T04:30:04;91657.66;;;6.90;100.00
37206;BME280;23099;42.636;23.198;2023-04-21T04:32:33;91665.28;;;6.91;100.00
37206;BME280;23099;42.636;23.198;2023-04-21T04:34:59;91658.56;;;6.97;100.00
37206;BME280;23099;42.636;23.198;2023-04-21T04:37:26;91661.22;;;6.97;100.00
37206;BME280;23099;42.636;23.198;2023-04-21T04:39:53;91662.41;;;7.00;100.00
37206;BME280;23099;42.636;23.198;2023-04-21T04:42:20;91662.41;;;7.00;100.00
37206;BME280;23099;42.636;23.198;2023-04-21T04:44:46;91666.72;;;7.04;100.00
37206;BME280;23099;42.636;23.198;2023-04-21T04:47:13;91665.72;;;7.13;100.00
37206;BME280;23099;42.636;23.198;2023-04-21T04:49:41;91659.88;;;7.23;100.00
37206;BME280;23099;42.636;23.198;2023-04-21T04:52:08;91667.91;;;7.26;100.00
37206;BME280;23099;42.636;23.198;2023-04-21T04:54:35;91666.97;;;7.34;100.00
37206;BME280;23099;42.636;23.198;2023-04-21T04:57:01;91668.88;;;7.34;100.00
37206;BME280;23099;42.636;23.198;2023-04-21T04:59:28;91663.75;;;7.44;100.00
37206;BME280;23099;42.636;23.198;2023-04-21T05:01:56;91670.63;;;7.45;100.00
37206;BME280;23099;42.636;23.198;2023-04-21T05:04:22;91664.66;;;7.52;100.00
37206;BME280;23099;42.636;23.198;2023-04-21T05:06:50;91665.00;;;7.51;100.00
37206;BME280;23099;42.636;23.198;2023-04-21T05:09:17;91663.69;;;7.60;100.00
37206;BME280;23099;42.636;23.198;2023-04-21T05:11:44;91671.75;;;7.64;100.00
37206;BME280;23099;42.636;23.198;2023-04-21T05:14:10;91673.34;;;7.68;100.00
37206;BME280;23099;42.636;23.198;2023-04-21T05:16:37;91668.53;;;7.74;100.00
37206;BME280;23099;42.636;23.198;2023-04-21T05:19:04;91671.13;;;7.70;100.00
37206;BME280;23099;42.636;23.198;2023-04-21T05:21:30;91668.81;;;7.69;100.00
37206;BME280;23099;42.636;23.198;2023-04-21T05:23:59;91662.19;;;7.78;100.00
37206;BME280;23099;42.636;23.198;2023-04-21T05:26:27;91666.50;;;7.87;100.00
37206;BME280;23099;42.636;23.198;2023-04-21T05:28:54;91669.66;;;7.92;100.00
37206;BME280;23099;42.636;23.198;2023-04-21T05:31:21;91665.38;;;7.88;100.00
37206;BME280;23099;42.636;23.198;2023-04-21T05:33:48;91659.13;;;7.99;100.00
37206;BME280;23099;42.636;23.198;2023-04-21T05:36:15;91660.81;;;8.07;100.00
37206;BME280;23099;42.636;23.198;2023-04-21T05:38:42;91664.44;;;8.19;100.00
37206;BME280;23099;42.636;23.198;2023-04-21T05:41:10;91668.41;;;8.28;99.46
37206;BME280;23099;42.636;23.198;2023-04-21T05:43:36;91671.59;;;8.34;97.80
37206;BME280;23099;42.636;23.198;2023-04-21T05:46:08;91662.47;;;8.35;97.46
37206;BME280;23099;42.636;23.198;2023-04-21T05:48:35;91661.19;;;8.48;97.43
37206;BME280;23099;42.636;23.198;2023-04-21T05:51:07;91665.06;;;8.54;97.55
37206;BME280;23099;42.636;23.198;2023-04-21T05:53:34;91667.22;;;8.45;96.60
37206;BME280;23099;42.636;23.198;2023-04-21T05:56:00;91663.84;;;8.48;97.25
37206;BME280;23099;42.636;23.198;2023-04-21T05:58:28;91659.63;;;8.47;97.31
37206;BME280;23099;42.636;23.198;2023-04-21T06:00:55;91665.13;;;8.58;97.18
37206;BME280;23099;42.636;23.198;2023-04-21T06:03:22;91667.94;;;8.65;97.06
37206;BME280;23099;42.636;23.198;2023-04-21T06:05:52;91659.19;;;8.68;95.48
37206;BME280;23099;42.636;23.198;2023-04-21T06:08:19;91667.03;;;8.80;97.46
37206;BME280;23099;42.636;23.198;2023-04-21T06:10:46;91666.28;;;8.83;96.46
37206;BME280;23099;42.636;23.198;2023-04-21T06:13:12;91669.09;;;8.90;95.68
37206;BME280;23099;42.636;23.198;2023-04-21T06:15:40;91665.09;;;9.03;94.44
37206;BME280;23099;42.636;23.198;2023-04-21T06:18:07;91665.50;;;9.05;91.20
37206;BME280;23099;42.636;23.198;2023-04-21T06:20:34;91671.25;;;9.07;91.62
37206;BME280;23099;42.636;23.198;2023-04-21T06:23:00;91662.91;;;9.09;89.58
37206;BME280;23099;42.636;23.198;2023-04-21T06:25:27;91663.25;;;9.07;90.58
37206;BME280;23099;42.636;23.198;2023-04-21T06:27:54;91665.31;;;9.17;88.24
37206;BME280;23099;42.636;23.198;2023-04-21T06:30:21;91669.97;;;9.24;87.67
37206;BME280;23099;42.636;23.198;2023-04-21T06:32:49;91668.66;;;9.37;88.34
37206;BME280;23099;42.636;23.198;2023-04-21T06:35:16;91668.00;;;9.47;86.95
37206;BME280;23099;42.636;23.198;2023-04-21T06:37:44;91657.84;;;9.56;87.56
37206;BME280;23099;42.636;23.198;2023-04-21T06:40:11;91656.56;;;9.77;87.78
37206;BME280;23099;42.636;23.198;2023-04-21T06:42:40;91653.31;;;9.90;84.95
37206;BME280;23099;42.636;23.198;2023-04-21T06:45:07;91652.59;;;9.97;85.69
37206;BME280;23099;42.636;23.198;2023-04-21T06:47:34;91663.78;;;10.06;85.10
37206;BME280;23099;42.636;23.198;2023-04-21T06:50:03;91660.41;;;10.13;83.48
37206;BME280;23099;42.636;23.198;2023-04-21T06:52:30;91666.63;;;10.20;85.10
37206;BME280;23099;42.636;23.198;2023-04-21T06:54:56;91660.94;;;10.25;83.17
37206;BME280;23099;42.636;23.198;2023-04-21T06:57:23;91653.78;;;10.33;82.27
37206;BME280;23099;42.636;23.198;2023-04-21T06:59:50;91655.84;;;10.47;81.15
37206;BME280;23099;42.636;23.198;2023-04-21T07:02:16;91660.09;;;10.51;79.88
37206;BME280;23099;42.636;23.198;2023-04-21T07:04:43;91655.56;;;10.59;80.56
37206;BME280;23099;42.636;23.198;2023-04-21T07:07:11;91660.94;;;10.62;80.07
37206;BME280;23099;42.636;23.198;2023-04-21T07:09:38;91655.31;;;10.75;80.92
37206;BME280;23099;42.636;23.198;2023-04-21T07:12:05;91664.88;;;10.76;79.92
37206;BME280;23099;42.636;23.198;2023-04-21T07:14:32;91668.16;;;10.58;77.82
37206;BME280;23099;42.636;23.198;2023-04-21T07:16:58;91675.75;;;10.53;77.95
37206;BME280;23099;42.636;23.198;2023-04-21T07:19:25;91670.41;;;10.53;79.48
37206;BME280;23099;42.636;23.198;2023-04-21T07:21:52;91672.63;;;10.47;78.51
37206;BME280;23099;42.636;23.198;2023-04-21T07:24:20;91672.94;;;10.42;79.68
37206;BME280;23099;42.636;23.198;2023-04-21T07:26:47;91671.00;;;10.39;80.10
37206;BME280;23099;42.636;23.198;2023-04-21T07:29:14;91670.25;;;10.39;81.60
37206;BME280;23099;42.636;23.198;2023-04-21T07:31:40;91660.66;;;10.34;80.65
37206;BME280;23099;42.636;23.198;2023-04-21T07:34:07;91667.19;;;10.40;80.37
37206;BME280;23099;42.636;23.198;2023-04-21T07:36:34;91666.91;;;10.49;79.49
37206;BME280;23099;42.636;23.198;2023-04-21T07:39:02;91670.00;;;10.54;78.62
37206;BME280;23099;42.636;23.198;2023-04-21T07:41:30;91666.69;;;10.65;80.24
37206;BME280;23099;42.636;23.198;2023-04-21T07:43:58;91682.00;;;10.71;79.25
37206;BME280;23099;42.636;23.198;2023-04-21T07:46:25;91677.84;;;10.74;77.64
37206;BME280;23099;42.636;23.198;2023-04-21T07:48:54;91680.16;;;10.75;78.22
37206;BME280;23099;42.636;23.198;2023-04-21T07:51:21;91681.66;;;10.73;79.66
37206;BME280;23099;42.636;23.198;2023-04-21T07:53:48;91680.09;;;10.72;79.90
37206;BME280;23099;42.636;23.198;2023-04-21T07:56:15;91683.31;;;10.88;79.08
37206;BME280;23099;42.636;23.198;2023-04-21T07:58:43;91682.63;;;10.98;79.58
37206;BME280;23099;42.636;23.198;2023-04-21T08:01:10;91681.44;;;10.92;77.92
37206;BME280;23099;42.636;23.198;2023-04-21T08:03:37;91678.81;;;10.99;77.40
37206;BME280;23099;42.636;23.198;2023-04-21T08:06:04;91679.56;;;10.99;76.29
37206;BME280;23099;42.636;23.198;2023-04-21T08:08:30;91674.75;;;11.16;77.38
37206;BME280;23099;42.636;23.198;2023-04-21T08:10:57;91673.75;;;11.38;76.89
37206;BME280;23099;42.636;23.198;2023-04-21T08:13:24;91666.97;;;11.55;73.26
37206;BME280;23099;42.636;23.198;2023-04-21T08:15:52;91673.56;;;11.68;74.82
37206;BME280;23099;42.636;23.198;2023-04-21T08:18:19;91669.72;;;11.65;76.43
37206;BME280;23099;42.636;23.198;2023-04-21T08:20:47;91660.94;;;11.68;75.37
37206;BME280;23099;42.636;23.198;2023-04-21T08:23:14;91650.34;;;11.90;72.45
37206;BME280;23099;42.636;23.198;2023-04-21T08:25:41;91657.31;;;12.05;73.73
37206;BME280;23099;42.636;23.198;2023-04-21T08:28:08;91654.28;;;12.21;70.98
37206;BME280;23099;42.636;23.198;2023-04-21T08:30:35;91652.44;;;12.39;77.42
37206;BME280;23099;42.636;23.198;2023-04-21T08:33:03;91658.25;;;12.77;70.16
37206;BME280;23099;42.636;23.198;2023-04-21T08:35:29;91659.03;;;12.91;68.30
37206;BME280;23099;42.636;23.198;2023-04-21T08:37:56;91659.03;;;12.95;70.19
37206;BME280;23099;42.636;23.198;2023-04-21T08:40:28;91656.38;;;13.16;69.61
37206;BME280;23099;42.636;23.198;2023-04-21T08:42:57;91653.66;;;13.05;69.16
37206;BME280;23099;42.636;23.198;2023-04-21T08:45:24;91649.44;;;13.01;68.98
37206;BME280;23099;42.636;23.198;2023-04-21T08:47:51;91643.69;;;12.92;67.55
37206;BME280;23099;42.636;23.198;2023-04-21T08:50:26;91637.53;;;12.84;67.87
37206;BME280;23099;42.636;23.198;2023-04-21T08:52:54;91648.66;;;12.90;66.61
37206;BME280;23099;42.636;23.198;2023-04-21T08:55:24;91646.00;;;12.79;68.99
37206;BME280;23099;42.636;23.198;2023-04-21T08:57:51;91657.84;;;12.71;68.97
37206;BME280;23099;42.636;23.198;2023-04-21T09:00:18;91657.84;;;12.53;67.85
37206;BME280;23099;42.636;23.198;2023-04-21T09:02:52;91648.22;;;12.45;69.51
37206;BME280;23099;42.636;23.198;2023-04-21T09:05:22;91645.53;;;12.45;70.95
37206;BME280;23099;42.636;23.198;2023-04-21T09:07:50;91646.69;;;12.44;71.76
37206;BME280;23099;42.636;23.198;2023-04-21T09:10:21;91645.88;;;12.29;71.12
37206;BME280;23099;42.636;23.198;2023-04-21T09:12:49;91646.25;;;12.28;72.43
37206;BME280;23099;42.636;23.198;2023-04-21T09:15:16;91639.00;;;12.28;71.45
37206;BME280;23099;42.636;23.198;2023-04-21T09:17:44;91642.03;;;12.16;71.29
37206;BME280;23099;42.636;23.198;2023-04-21T09:20:13;91633.31;;;12.58;70.66
37206;BME280;23099;42.636;23.198;2023-04-21T09:22:42;91628.00;;;13.12;70.95
37206;BME280;23099;42.636;23.198;2023-04-21T09:25:08;91625.25;;;13.58;68.84
37206;BME280;23099;42.636;23.198;2023-04-21T09:27:36;91622.94;;;13.60;65.03
37206;BME280;23099;42.636;23.198;2023-04-21T09:30:04;91618.41;;;13.32;65.96
37206;BME280;23099;42.636;23.198;2023-04-21T09:32:35;91616.13;;;13.16;65.93
37206;BME280;23099;42.636;23.198;2023-04-21T09:35:03;91612.66;;;13.26;64.17
37206;BME280;23099;42.636;23.198;2023-04-21T09:37:31;91616.09;;;13.30;66.87
37206;BME280;23099;42.636;23.198;2023-04-21T09:40:00;91610.72;;;13.30;65.72
37206;BME280;23099;42.636;23.198;2023-04-21T09:42:28;91618.81;;;13.27;65.30
37206;BME280;23099;42.636;23.198;2023-04-21T09:44:55;91617.63;;;13.28;67.72
37206;BME280;23099;42.636;23.198;2023-04-21T09:47:22;91604.22;;;13.28;67.97
37206;BME280;23099;42.636;23.198;2023-04-21T09:49:50;91614.59;;;13.26;67.44
37206;BME280;23099;42.636;23.198;2023-04-21T09:52:18;91609.22;;;13.22;66.86
37206;BME280;23099;42.636;23.198;2023-04-21T09:54:48;91614.19;;;13.24;63.03
37206;BME280;23099;42.636;23.198;2023-04-21T09:57:20;91609.97;;;13.33;66.42
37206;BME280;23099;42.636;23.198;2023-04-21T09:59:50;91607.66;;;13.32;65.65
37206;BME280;23099;42.636;23.198;2023-04-21T10:02:23;91600.38;;;13.32;65.74
37206;BME280;23099;42.636;23.198;2023-04-21T10:04:51;91599.25;;;13.12;63.47
37206;BME280;23099;42.636;23.198;2023-04-21T10:07:18;91596.94;;;13.18;65.54
37206;BME280;23099;42.636;23.198;2023-04-21T10:09:48;91601.16;;;13.19;62.77
37206;BME280;23099;42.636;23.198;2023-04-21T10:12:16;91600.75;;;13.34;63.32
37206;BME280;23099;42.636;23.198;2023-04-21T10:14:45;91600.75;;;13.38;65.41
37206;BME280;23099;42.636;23.198;2023-04-21T10:17:15;91611.09;;;13.32;62.65
37206;BME280;23099;42.636;23.198;2023-04-21T10:19:48;91606.53;;;13.26;62.22
37206;BME280;23099;42.636;23.198;2023-04-21T10:22:25;91617.25;;;13.19;63.89
37206;BME280;23099;42.636;23.198;2023-04-21T10:24:54;91609.59;;;13.06;67.99
37206;BME280;23099;42.636;23.198;2023-04-21T10:27:30;91606.16;;;12.92;68.86
37206;BME280;23099;42.636;23.198;2023-04-21T10:29:58;91598.84;;;12.85;69.47
37206;BME280;23099;42.636;23.198;2023-04-21T10:32:41;91602.31;;;12.79;70.06
37206;BME280;23099;42.636;23.198;2023-04-21T10:35:09;91596.94;;;12.79;74.41
37206;BME280;23099;42.636;23.198;2023-04-21T10:37:36;91595.03;;;12.83;74.57
37206;BME280;23099;42.636;23.198;2023-04-21T10:40:04;91592.72;;;13.02;75.24
37206;BME280;23099;42.636;23.198;2023-04-21T10:42:34;91593.13;;;13.15;70.14
37206;BME280;23099;42.636;23.198;2023-04-21T10:45:11;91591.91;;;13.44;73.53
37206;BME280;23099;42.636;23.198;2023-04-21T10:47:40;91582.47;;;14.13;69.53
37206;BME280;23099;42.636;23.198;2023-04-21T10:50:16;91579.25;;;14.39;67.89
37206;BME280;23099;42.636;23.198;2023-04-21T10:52:46;91580.81;;;14.92;61.67
37206;BME280;23099;42.636;23.198;2023-04-21T10:55:17;91582.38;;;14.86;61.94
37206;BME280;23099;42.636;23.198;2023-04-21T10:57:45;91590.56;;;14.72;59.87
37206;BME280;23099;42.636;23.198;2023-04-21T11:00:18;91596.13;;;14.47;59.07
37206;BME280;23099;42.636;23.198;2023-04-21T11:02:56;91602.69;;;14.35;59.87
37206;BME280;23099;42.636;23.198;2023-04-21T11:05:31;91603.47;;;14.29;61.86
37206;BME280;23099;42.636;23.198;2023-04-21T11:08:04;91596.63;;;14.17;58.97
37206;BME280;23099;42.636;23.198;2023-04-21T11:10:51;91586.31;;;14.05;58.76
37206;BME280;23099;42.636;23.198;2023-04-21T11:13:22;91597.47;;;14.00;60.55
37206;BME280;23099;42.636;23.198;2023-04-21T11:15:58;91589.09;;;13.87;60.60
37206;BME280;23099;42.636;23.198;2023-04-21T11:18:33;91593.78;;;13.69;61.13
37206;BME280;23099;42.636;23.198;2023-04-21T11:21:12;91593.78;;;13.65;61.19
37206;BME280;23099;42.636;23.198;2023-04-21T11:23:47;91589.94;;;13.59;61.46
37206;BME280;23099;42.636;23.198;2023-04-21T11:26:14;91594.97;;;13.47;62.94
37206;BME280;23099;42.636;23.198;2023-04-21T11:28:41;91592.28;;;13.47;64.28
37206;BME280;23099;42.636;23.198;2023-04-21T11:31:09;91587.34;;;13.38;66.89
37206;BME280;23099;42.636;23.198;2023-04-21T11:33:37;91591.97;;;13.27;73.75
37206;BME280;23099;42.636;23.198;2023-04-21T11:36:05;91593.09;;;13.08;75.08
37206;BME280;23099;42.636;23.198;2023-04-21T11:38:39;91591.59;;;12.96;76.98
37206;BME280;23099;42.636;23.198;2023-04-21T11:41:06;91583.94;;;12.95;70.81
37206;BME280;23099;42.636;23.198;2023-04-21T11:43:35;91589.66;;;12.86;69.90
37206;BME280;23099;42.636;23.198;2023-04-21T11:46:16;91583.53;;;12.64;67.77
37206;BME280;23099;42.636;23.198;2023-04-21T11:48:43;91593.88;;;12.80;72.49
37206;BME280;23099;42.636;23.198;2023-04-21T11:51:16;91585.44;;;12.85;76.18
37206;BME280;23099;42.636;23.198;2023-04-21T11:53:45;91594.66;;;12.98;73.76
37206;BME280;23099;42.636;23.198;2023-04-21T11:56:16;91597.31;;;13.13;74.23
37206;BME280;23099;42.636;23.198;2023-04-21T11:58:43;91591.56;;;13.28;70.92
37206;BME280;23099;42.636;23.198;2023-04-21T12:01:14;91591.56;;;13.35;68.70
37206;BME280;23099;42.636;23.198;2023-04-21T12:03:49;91583.09;;;13.48;68.91
37206;BME280;23099;42.636;23.198;2023-04-21T12:06:20;91591.88;;;13.62;65.29
37206;BME280;23099;42.636;23.198;2023-04-21T12:08:46;91581.47;;;13.75;67.66
37206;BME280;23099;42.636;23.198;2023-04-21T12:11:15;91582.94;;;13.94;65.57
37206;BME280;23099;42.636;23.198;2023-04-21T12:13:43;91584.41;;;14.09;62.85
37206;BME280;23099;42.636;23.198;2023-04-21T12:16:11;91580.88;;;14.19;62.43
37206;BME280;23099;42.636;23.198;2023-04-21T12:18:38;91575.13;;;14.17;58.19
37206;BME280;23099;42.636;23.198;2023-04-21T12:21:06;91572.91;;;14.05;61.47
37206;BME280;23099;42.636;23.198;2023-04-21T12:23:33;91579.88;;;13.92;61.72
37206;BME280;23099;42.636;23.198;2023-04-21T12:25:59;91577.22;;;13.81;60.74
37206;BME280;23099;42.636;23.198;2023-04-21T12:28:28;91582.19;;;13.90;58.35
37206;BME280;23099;42.636;23.198;2023-04-21T12:30:55;91583.31;;;13.92;61.13
37206;BME280;23099;42.636;23.198;2023-04-21T12:33:22;91587.53;;;13.93;59.62
37206;BME280;23099;42.636;23.198;2023-04-21T12:35:48;91589.06;;;13.91;57.31
37206;BME280;23099;42.636;23.198;2023-04-21T12:38:17;91574.09;;;13.93;56.75
37206;BME280;23099;42.636;23.198;2023-04-21T12:40:43;91586.81;;;13.82;56.41
37206;BME280;23099;42.636;23.198;2023-04-21T12:43:10;91591.38;;;13.92;59.04
37206;BME280;23099;42.636;23.198;2023-04-21T12:45:37;91575.97;;;14.03;59.45
37206;BME280;23099;42.636;23.198;2023-04-21T12:48:04;91574.38;;;14.16;62.23
37206;BME280;23099;42.636;23.198;2023-04-21T12:50:31;91585.03;;;14.31;59.56
37206;BME280;23099;42.636;23.198;2023-04-21T12:52:57;91587.69;;;14.38;57.45
37206;BME280;23099;42.636;23.198;2023-04-21T12:55:26;91577.56;;;14.63;56.85